Aviation Digital Data Service (ADDS)

Output produced by METARs form (1728 UTC 22 September 2019)
found at http://www.aviationweather.gov/metar/data/
 
METAR text: LEMD 221700Z 29009KT 250V330 9999 FEW069 23/08 Q1016 NOSIG
Conditions at: LEMD (MADRID/BARAJAS , ES) observed 1700 UTC 22 September 2019
Temperature: 23.0°C (73°F)
Dewpoint: 8.0°C (46°F) [RH = 38%]
Pressure (altimeter): 30.00 inches Hg (1016.0 mb)
Winds: from the WNW (290 degrees) at 10 MPH (9 knots; 4.6 m/s)
Visibility: 6 or more miles (10+ km)
Ceiling: at least 12,000 feet AGL
Clouds: few clouds at 6900 feet AGL
Weather: no significant weather observed at this time

METAR text: LEMD 221630Z 30009KT 260V330 9999 FEW069 23/08 Q1016 NOSIG
Conditions at: LEMD (MADRID/BARAJAS , ES) observed 1630 UTC 22 September 2019
Temperature: 23.0°C (73°F)
Dewpoint: 8.0°C (46°F) [RH = 38%]
Pressure (altimeter): 30.00 inches Hg (1016.0 mb)
Winds: from the WNW (300 degrees) at 10 MPH (9 knots; 4.6 m/s)
Visibility: 6 or more miles (10+ km)
Ceiling: at least 12,000 feet AGL
Clouds: few clouds at 6900 feet AGL
Weather: no significant weather observed at this time

METAR text: LEMD 221600Z 28009KT 9999 FEW069 23/08 Q1015 NOSIG
Conditions at: LEMD (MADRID/BARAJAS , ES) observed 1600 UTC 22 September 2019
Temperature: 23.0°C (73°F)
Dewpoint: 8.0°C (46°F) [RH = 38%]
Pressure (altimeter): 29.97 inches Hg (1015.0 mb)
Winds: from the W (280 degrees) at 10 MPH (9 knots; 4.6 m/s)
Visibility: 6 or more miles (10+ km)
Ceiling: at least 12,000 feet AGL
Clouds: few clouds at 6900 feet AGL
Weather: no significant weather observed at this time

METAR text: LEMD 221530Z 26007KT 210V310 9999 FEW069 23/08 Q1015 NOSIG
Conditions at: LEMD (MADRID/BARAJAS , ES) observed 1530 UTC 22 September 2019
Temperature: 23.0°C (73°F)
Dewpoint: 8.0°C (46°F) [RH = 38%]
Pressure (altimeter): 29.97 inches Hg (1015.0 mb)
Winds: from the W (260 degrees) at 8 MPH (7 knots; 3.6 m/s)
Visibility: 6 or more miles (10+ km)
Ceiling: at least 12,000 feet AGL
Clouds: few clouds at 6900 feet AGL
Weather: no significant weather observed at this time

METAR text: LEMD 221500Z 27008KT 220V350 9999 FEW060 24/09 Q1015 NOSIG
Conditions at: LEMD (MADRID/BARAJAS , ES) observed 1500 UTC 22 September 2019
Temperature: 24.0°C (75°F)
Dewpoint: 9.0°C (48°F) [RH = 38%]
Pressure (altimeter): 29.97 inches Hg (1015.0 mb)
Winds: from the W (270 degrees) at 9 MPH (8 knots; 4.1 m/s)
Visibility: 6 or more miles (10+ km)
Ceiling: at least 12,000 feet AGL
Clouds: few clouds at 6000 feet AGL
Weather: no significant weather observed at this time

METAR text: LEMD 221430Z 24009KT 210V290 9999 FEW060 23/08 Q1015 NOSIG
Conditions at: LEMD (MADRID/BARAJAS , ES) observed 1430 UTC 22 September 2019
Temperature: 23.0°C (73°F)
Dewpoint: 8.0°C (46°F) [RH = 38%]
Pressure (altimeter): 29.97 inches Hg (1015.0 mb)
Winds: from the WSW (240 degrees) at 10 MPH (9 knots; 4.6 m/s)
Visibility: 6 or more miles (10+ km)
Ceiling: at least 12,000 feet AGL
Clouds: few clouds at 6000 feet AGL
Weather: no significant weather observed at this time

METAR text: LEMD 221400Z 24012KT 210V280 9999 FEW057 23/08 Q1015 NOSIG
Conditions at: LEMD (MADRID/BARAJAS , ES) observed 1400 UTC 22 September 2019
Temperature: 23.0°C (73°F)
Dewpoint: 8.0°C (46°F) [RH = 38%]
Pressure (altimeter): 29.97 inches Hg (1015.0 mb)
Winds: from the WSW (240 degrees) at 14 MPH (12 knots; 6.2 m/s)
Visibility: 6 or more miles (10+ km)
Ceiling: at least 12,000 feet AGL
Clouds: few clouds at 5700 feet AGL
Weather: no significant weather observed at this time

METAR text: LEMD 221330Z 23011KT 9999 FEW055 23/10 Q1015 NOSIG
Conditions at: LEMD (MADRID/BARAJAS , ES) observed 1330 UTC 22 September 2019
Temperature: 23.0°C (73°F)
Dewpoint: 10.0°C (50°F) [RH = 44%]
Pressure (altimeter): 29.97 inches Hg (1015.0 mb)
Winds: from the SW (230 degrees) at 13 MPH (11 knots; 5.7 m/s)
Visibility: 6 or more miles (10+ km)
Ceiling: at least 12,000 feet AGL
Clouds: few clouds at 5500 feet AGL
Weather: no significant weather observed at this time

METAR text: LEMD 221300Z 21008KT 160V260 9999 FEW050 23/11 Q1015 NOSIG
Conditions at: LEMD (MADRID/BARAJAS , ES) observed 1300 UTC 22 September 2019
Temperature: 23.0°C (73°F)
Dewpoint: 11.0°C (52°F) [RH = 47%]
Pressure (altimeter): 29.97 inches Hg (1015.0 mb)
Winds: from the SSW (210 degrees) at 9 MPH (8 knots; 4.1 m/s)
Visibility: 6 or more miles (10+ km)
Ceiling: at least 12,000 feet AGL
Clouds: few clouds at 5000 feet AGL
Weather: no significant weather observed at this time

METAR text: LEMD 221230Z 22007KT 180V290 9999 FEW045 22/11 Q1015 NOSIG
Conditions at: LEMD (MADRID/BARAJAS , ES) observed 1230 UTC 22 September 2019
Temperature: 22.0°C (72°F)
Dewpoint: 11.0°C (52°F) [RH = 50%]
Pressure (altimeter): 29.97 inches Hg (1015.0 mb)
Winds: from the SW (220 degrees) at 8 MPH (7 knots; 3.6 m/s)
Visibility: 6 or more miles (10+ km)
Ceiling: at least 12,000 feet AGL
Clouds: few clouds at 4500 feet AGL
Weather: no significant weather observed at this time

METAR text: LEMD 221200Z 24011G23KT 220V290 9999 FEW043 22/09 Q1015 NOSIG
Conditions at: LEMD (MADRID/BARAJAS , ES) observed 1200 UTC 22 September 2019
Temperature: 22.0°C (72°F)
Dewpoint: 9.0°C (48°F) [RH = 43%]
Pressure (altimeter): 29.97 inches Hg (1015.0 mb)
Winds: from the WSW (240 degrees) at 13 MPH (11 knots; 5.7 m/s)
gusting to 26 MPH (23 knots; 11.8 m/s)
Visibility: 6 or more miles (10+ km)
Ceiling: at least 12,000 feet AGL
Clouds: few clouds at 4300 feet AGL
Weather: no significant weather observed at this time

METAR text: LEMD 221130Z 25008KT 210V290 9999 FEW033 21/12 Q1015 NOSIG
Conditions at: LEMD (MADRID/BARAJAS , ES) observed 1130 UTC 22 September 2019
Temperature: 21.0°C (70°F)
Dewpoint: 12.0°C (54°F) [RH = 56%]
Pressure (altimeter): 29.97 inches Hg (1015.0 mb)
Winds: from the WSW (250 degrees) at 9 MPH (8 knots; 4.1 m/s)
Visibility: 6 or more miles (10+ km)
Ceiling: at least 12,000 feet AGL
Clouds: few clouds at 3300 feet AGL
Weather: no significant weather observed at this time

METAR text: LEMD 221100Z 23011G21KT 190V260 9999 SCT033 21/13 Q1015 NOSIG
Conditions at: LEMD (MADRID/BARAJAS , ES) observed 1100 UTC 22 September 2019
Temperature: 21.0°C (70°F)
Dewpoint: 13.0°C (55°F) [RH = 60%]
Pressure (altimeter): 29.97 inches Hg (1015.0 mb)
Winds: from the SW (230 degrees) at 13 MPH (11 knots; 5.7 m/s)
gusting to 24 MPH (21 knots; 10.8 m/s)
Visibility: 6 or more miles (10+ km)
Ceiling: at least 12,000 feet AGL
Clouds: scattered clouds at 3300 feet AGL
Weather: no significant weather observed at this time

METAR text: LEMD 221030Z 24010G21KT 200V280 9999 SCT033 20/13 Q1015 R88/CLRD// NOSIG
Conditions at: LEMD (MADRID/BARAJAS , ES) observed 1030 UTC 22 September 2019
Temperature: 20.0°C (68°F)
Dewpoint: 13.0°C (55°F) [RH = 64%]
Pressure (altimeter): 29.97 inches Hg (1015.0 mb)
Winds: from the WSW (240 degrees) at 12 MPH (10 knots; 5.1 m/s)
gusting to 24 MPH (21 knots; 10.8 m/s)
Visibility: 6 or more miles (10+ km)
Ceiling: at least 12,000 feet AGL
Clouds: scattered clouds at 3300 feet AGL
Weather: no significant weather observed at this time

METAR text: LEMD 221000Z 24013KT 210V270 9999 FEW025 20/13 Q1015 R88/29//95 NOSIG
Conditions at: LEMD (MADRID/BARAJAS , ES) observed 1000 UTC 22 September 2019
Temperature: 20.0°C (68°F)
Dewpoint: 13.0°C (55°F) [RH = 64%]
Pressure (altimeter): 29.97 inches Hg (1015.0 mb)
Winds: from the WSW (240 degrees) at 15 MPH (13 knots; 6.7 m/s)
Visibility: 6 or more miles (10+ km)
Ceiling: at least 12,000 feet AGL
Clouds: few clouds at 2500 feet AGL
Weather: no significant weather observed at this time

METAR text: LEMD 220930Z 24012KT 210V280 9999 FEW015 20/14 Q1015 R88/29//95 NOSIG
Conditions at: LEMD (MADRID/BARAJAS , ES) observed 0930 UTC 22 September 2019
Temperature: 20.0°C (68°F)
Dewpoint: 14.0°C (57°F) [RH = 68%]
Pressure (altimeter): 29.97 inches Hg (1015.0 mb)
Winds: from the WSW (240 degrees) at 14 MPH (12 knots; 6.2 m/s)
Visibility: 6 or more miles (10+ km)
Ceiling: at least 12,000 feet AGL
Clouds: few clouds at 1500 feet AGL
Weather: no significant weather observed at this time

METAR text: LEMD 220900Z 25010G21KT 9999 FEW015 SCT020 19/15 Q1015 R88/29//95 NOSIG
Conditions at: LEMD (MADRID/BARAJAS , ES) observed 0900 UTC 22 September 2019
Temperature: 19.0°C (66°F)
Dewpoint: 15.0°C (59°F) [RH = 78%]
Pressure (altimeter): 29.97 inches Hg (1015.0 mb)
Winds: from the WSW (250 degrees) at 12 MPH (10 knots; 5.1 m/s)
gusting to 24 MPH (21 knots; 10.8 m/s)
Visibility: 6 or more miles (10+ km)
Ceiling: at least 12,000 feet AGL
Clouds: few clouds at 1500 feet AGL
scattered clouds at 2000 feet AGL
Weather: no significant weather observed at this time

METAR text: LEMD 220830Z 22009G22KT 190V280 9999 FEW012 SCT020 19/16 Q1015 R88/29//95 NOSIG
Conditions at: LEMD (MADRID/BARAJAS , ES) observed 0830 UTC 22 September 2019
Temperature: 19.0°C (66°F)
Dewpoint: 16.0°C (61°F) [RH = 83%]
Pressure (altimeter): 29.97 inches Hg (1015.0 mb)
Winds: from the SW (220 degrees) at 10 MPH (9 knots; 4.6 m/s)
gusting to 25 MPH (22 knots; 11.3 m/s)
Visibility: 6 or more miles (10+ km)
Ceiling: at least 12,000 feet AGL
Clouds: few clouds at 1200 feet AGL
scattered clouds at 2000 feet AGL
Weather: no significant weather observed at this time

METAR text: LEMD 220800Z 22008KT 9999 FEW012 SCT020 18/15 Q1015 R88/29//95 NOSIG
Conditions at: LEMD (MADRID/BARAJAS , ES) observed 0800 UTC 22 September 2019
Temperature: 18.0°C (64°F)
Dewpoint: 15.0°C (59°F) [RH = 83%]
Pressure (altimeter): 29.97 inches Hg (1015.0 mb)
Winds: from the SW (220 degrees) at 9 MPH (8 knots; 4.1 m/s)
Visibility: 6 or more miles (10+ km)
Ceiling: at least 12,000 feet AGL
Clouds: few clouds at 1200 feet AGL
scattered clouds at 2000 feet AGL
Weather: no significant weather observed at this time

METAR text: LEMD 220730Z 21011KT 170V240 9999 FEW008 SCT016 BKN035 18/16 Q1014 R88/29//95 NOSIG
Conditions at: LEMD (MADRID/BARAJAS , ES) observed 0730 UTC 22 September 2019
Temperature: 18.0°C (64°F)
Dewpoint: 16.0°C (61°F) [RH = 88%]
Pressure (altimeter): 29.94 inches Hg (1014.0 mb)
Winds: from the SSW (210 degrees) at 13 MPH (11 knots; 5.7 m/s)
Visibility: 6 or more miles (10+ km)
Ceiling: 3500 feet AGL
Clouds: few clouds at 800 feet AGL
scattered clouds at 1600 feet AGL
broken clouds at 3500 feet AGL
Weather: no significant weather observed at this time

METAR text: LEMD 220700Z 17005KT 9999 FEW009 SCT016 BKN030 17/16 Q1014 R88/29//95 NOSIG
Conditions at: LEMD (MADRID/BARAJAS , ES) observed 0700 UTC 22 September 2019
Temperature: 17.0°C (63°F)
Dewpoint: 16.0°C (61°F) [RH = 94%]
Pressure (altimeter): 29.94 inches Hg (1014.0 mb)
Winds: from the S (170 degrees) at 6 MPH (5 knots; 2.6 m/s)
Visibility: 6 or more miles (10+ km)
Ceiling: 3000 feet AGL
Clouds: few clouds at 900 feet AGL
scattered clouds at 1600 feet AGL
broken clouds at 3000 feet AGL
Weather: no significant weather observed at this time

METAR text: LEMD 220630Z 18004KT 150V220 9999 FEW007 SCT014 BKN070 17/16 Q1014 R88/29//95 NOSIG
Conditions at: LEMD (MADRID/BARAJAS , ES) observed 0630 UTC 22 September 2019
Temperature: 17.0°C (63°F)
Dewpoint: 16.0°C (61°F) [RH = 94%]
Pressure (altimeter): 29.94 inches Hg (1014.0 mb)
Winds: from the S (180 degrees) at 5 MPH (4 knots; 2.1 m/s)
Visibility: 6 or more miles (10+ km)
Ceiling: 7000 feet AGL
Clouds: few clouds at 700 feet AGL
scattered clouds at 1400 feet AGL
broken clouds at 7000 feet AGL
Weather: no significant weather observed at this time

METAR text: LEMD 220600Z 19004KT 9000 FEW005 SCT010 BKN022 17/16 Q1014 R88/29//95 NOSIG
Conditions at: LEMD (MADRID/BARAJAS , ES) observed 0600 UTC 22 September 2019
Temperature: 17.0°C (63°F)
Dewpoint: 16.0°C (61°F) [RH = 94%]
Pressure (altimeter): 29.94 inches Hg (1014.0 mb)
Winds: from the S (190 degrees) at 5 MPH (4 knots; 2.1 m/s)
Visibility: 6 miles ( 9 km)
Ceiling: 2200 feet AGL
Clouds: few clouds at 500 feet AGL
scattered clouds at 1000 feet AGL
broken clouds at 2200 feet AGL
Weather: no significant weather observed at this time

METAR text: LEMD 220530Z 19005KT 150V240 3500 1600SE -RA BCFG FEW004 SCT010 BKN018 17/16 Q1013 R88/29//95 NOSIG
Conditions at: LEMD (MADRID/BARAJAS , ES) observed 0530 UTC 22 September 2019
Temperature: 17.0°C (63°F)
Dewpoint: 16.0°C (61°F) [RH = 94%]
Pressure (altimeter): 29.91 inches Hg (1013.0 mb)
Winds: from the S (190 degrees) at 6 MPH (5 knots; 2.6 m/s)
Visibility: 2.17 miles (3.49 km)
Ceiling: 1800 feet AGL
Clouds: few clouds at 400 feet AGL
scattered clouds at 1000 feet AGL
broken clouds at 1800 feet AGL
Weather: BCFG -RA  (patches of fog, light rain)

METAR text: LEMD 220500Z 20005KT 3500 1600E -RA BCFG FEW003 BKN018 17/16 Q1013 R88/29//95 NOSIG
Conditions at: LEMD (MADRID/BARAJAS , ES) observed 0500 UTC 22 September 2019
Temperature: 17.0°C (63°F)
Dewpoint: 16.0°C (61°F) [RH = 94%]
Pressure (altimeter): 29.91 inches Hg (1013.0 mb)
Winds: from the SSW (200 degrees) at 6 MPH (5 knots; 2.6 m/s)
Visibility: 2.17 miles (3.49 km)
Ceiling: 1800 feet AGL
Clouds: few clouds at 300 feet AGL
broken clouds at 1800 feet AGL
Weather: BCFG -RA  (patches of fog, light rain)

METAR text: LEMD 220430Z 21004KT 4500 0400SE BCFG FEW001 BKN020 18/16 Q1013 NOSIG
Conditions at: LEMD (MADRID/BARAJAS , ES) observed 0430 UTC 22 September 2019
Temperature: 18.0°C (64°F)
Dewpoint: 16.0°C (61°F) [RH = 88%]
Pressure (altimeter): 29.91 inches Hg (1013.0 mb)
Winds: from the SSW (210 degrees) at 5 MPH (4 knots; 2.1 m/s)
Visibility: 2.80 miles (4.51 km)
Ceiling: 2000 feet AGL
Clouds: few clouds at 100 feet AGL
broken clouds at 2000 feet AGL
Weather: BCFG  (patches of fog)

METAR text: LEMD 220400Z 15004KT 9999 FEW020 SCT037 18/16 Q1013 NOSIG
Conditions at: LEMD (MADRID/BARAJAS , ES) observed 0400 UTC 22 September 2019
Temperature: 18.0°C (64°F)
Dewpoint: 16.0°C (61°F) [RH = 88%]
Pressure (altimeter): 29.91 inches Hg (1013.0 mb)
Winds: from the SSE (150 degrees) at 5 MPH (4 knots; 2.1 m/s)
Visibility: 6 or more miles (10+ km)
Ceiling: at least 12,000 feet AGL
Clouds: few clouds at 2000 feet AGL
scattered clouds at 3700 feet AGL
Weather: no significant weather observed at this time

METAR text: LEMD 220330Z 18004KT 150V210 9999 FEW014 BKN042 18/16 Q1013 NOSIG
Conditions at: LEMD (MADRID/BARAJAS , ES) observed 0330 UTC 22 September 2019
Temperature: 18.0°C (64°F)
Dewpoint: 16.0°C (61°F) [RH = 88%]
Pressure (altimeter): 29.91 inches Hg (1013.0 mb)
Winds: from the S (180 degrees) at 5 MPH (4 knots; 2.1 m/s)
Visibility: 6 or more miles (10+ km)
Ceiling: 4200 feet AGL
Clouds: few clouds at 1400 feet AGL
broken clouds at 4200 feet AGL
Weather: no significant weather observed at this time

METAR text: LEMD 220300Z 20008KT 9999 FEW015 BKN030 18/16 Q1013 NOSIG
Conditions at: LEMD (MADRID/BARAJAS , ES) observed 0300 UTC 22 September 2019
Temperature: 18.0°C (64°F)
Dewpoint: 16.0°C (61°F) [RH = 88%]
Pressure (altimeter): 29.91 inches Hg (1013.0 mb)
Winds: from the SSW (200 degrees) at 9 MPH (8 knots; 4.1 m/s)
Visibility: 6 or more miles (10+ km)
Ceiling: 3000 feet AGL
Clouds: few clouds at 1500 feet AGL
broken clouds at 3000 feet AGL
Weather: no significant weather observed at this time

METAR text: LEMD 220230Z 18009KT 9999 FEW025 BKN030 18/15 Q1013 NOSIG
Conditions at: LEMD (MADRID/BARAJAS , ES) observed 0230 UTC 22 September 2019
Temperature: 18.0°C (64°F)
Dewpoint: 15.0°C (59°F) [RH = 83%]
Pressure (altimeter): 29.91 inches Hg (1013.0 mb)
Winds: from the S (180 degrees) at 10 MPH (9 knots; 4.6 m/s)
Visibility: 6 or more miles (10+ km)
Ceiling: 3000 feet AGL
Clouds: few clouds at 2500 feet AGL
broken clouds at 3000 feet AGL
Weather: no significant weather observed at this time

METAR text: LEMD 220200Z 18009KT 9999 FEW025 BKN040 19/15 Q1013 NOSIG
Conditions at: LEMD (MADRID/BARAJAS , ES) observed 0200 UTC 22 September 2019
Temperature: 19.0°C (66°F)
Dewpoint: 15.0°C (59°F) [RH = 78%]
Pressure (altimeter): 29.91 inches Hg (1013.0 mb)
Winds: from the S (180 degrees) at 10 MPH (9 knots; 4.6 m/s)
Visibility: 6 or more miles (10+ km)
Ceiling: 4000 feet AGL
Clouds: few clouds at 2500 feet AGL
broken clouds at 4000 feet AGL
Weather: no significant weather observed at this time

METAR text: LEMD 220130Z 18008KT 9999 FEW036 BKN060 19/15 Q1013 NOSIG
Conditions at: LEMD (MADRID/BARAJAS , ES) observed 0130 UTC 22 September 2019
Temperature: 19.0°C (66°F)
Dewpoint: 15.0°C (59°F) [RH = 78%]
Pressure (altimeter): 29.91 inches Hg (1013.0 mb)
Winds: from the S (180 degrees) at 9 MPH (8 knots; 4.1 m/s)
Visibility: 6 or more miles (10+ km)
Ceiling: 6000 feet AGL
Clouds: few clouds at 3600 feet AGL
broken clouds at 6000 feet AGL
Weather: no significant weather observed at this time

METAR text: LEMD 220100Z 17008KT 9000 SCT036 BKN070 19/15 Q1013 NOSIG
Conditions at: LEMD (MADRID/BARAJAS , ES) observed 0100 UTC 22 September 2019
Temperature: 19.0°C (66°F)
Dewpoint: 15.0°C (59°F) [RH = 78%]
Pressure (altimeter): 29.91 inches Hg (1013.0 mb)
Winds: from the S (170 degrees) at 9 MPH (8 knots; 4.1 m/s)
Visibility: 6 miles ( 9 km)
Ceiling: 7000 feet AGL
Clouds: scattered clouds at 3600 feet AGL
broken clouds at 7000 feet AGL
Weather: no significant weather observed at this time

METAR text: LEMD 220030Z 18006KT 6000 BKN035 BKN080 19/16 Q1014 NOSIG
Conditions at: LEMD (MADRID/BARAJAS , ES) observed 0030 UTC 22 September 2019
Temperature: 19.0°C (66°F)
Dewpoint: 16.0°C (61°F) [RH = 83%]
Pressure (altimeter): 29.94 inches Hg (1014.0 mb)
Winds: from the S (180 degrees) at 7 MPH (6 knots; 3.1 m/s)
Visibility: 4 miles ( 6 km)
Ceiling: 3500 feet AGL
Clouds: broken clouds at 3500 feet AGL
broken clouds at 8000 feet AGL
Weather: no significant weather observed at this time

METAR text: LEMD 220000Z 14003KT 6000 BKN035 18/17 Q1014 NOSIG
Conditions at: LEMD (MADRID/BARAJAS , ES) observed 0000 UTC 22 September 2019
Temperature: 18.0°C (64°F)
Dewpoint: 17.0°C (63°F) [RH = 94%]
Pressure (altimeter): 29.94 inches Hg (1014.0 mb)
Winds: from the SE (140 degrees) at 3 MPH (3 knots; 1.5 m/s)
Visibility: 4 miles ( 6 km)
Ceiling: 3500 feet AGL
Clouds: broken clouds at 3500 feet AGL
Weather: no significant weather observed at this time

METAR text: LEMD 212330Z 15005KT 8000 BKN040 19/17 Q1014 NOSIG
Conditions at: LEMD (MADRID/BARAJAS , ES) observed 2330 UTC 21 September 2019
Temperature: 19.0°C (66°F)
Dewpoint: 17.0°C (63°F) [RH = 88%]
Pressure (altimeter): 29.94 inches Hg (1014.0 mb)
Winds: from the SSE (150 degrees) at 6 MPH (5 knots; 2.6 m/s)
Visibility: 5 miles ( 8 km)
Ceiling: 4000 feet AGL
Clouds: broken clouds at 4000 feet AGL
Weather: no significant weather observed at this time

METAR text: LEMD 212300Z 14004KT 9999 FEW038 BKN045 18/17 Q1014 NOSIG
Conditions at: LEMD (MADRID/BARAJAS , ES) observed 2300 UTC 21 September 2019
Temperature: 18.0°C (64°F)
Dewpoint: 17.0°C (63°F) [RH = 94%]
Pressure (altimeter): 29.94 inches Hg (1014.0 mb)
Winds: from the SE (140 degrees) at 5 MPH (4 knots; 2.1 m/s)
Visibility: 6 or more miles (10+ km)
Ceiling: 4500 feet AGL
Clouds: few clouds at 3800 feet AGL
broken clouds at 4500 feet AGL
Weather: no significant weather observed at this time

METAR text: LEMD 212230Z VRB02KT 9999 FEW050 BKN055 18/16 Q1014 NOSIG
Conditions at: LEMD (MADRID/BARAJAS , ES) observed 2230 UTC 21 September 2019
Temperature: 18.0°C (64°F)
Dewpoint: 16.0°C (61°F) [RH = 88%]
Pressure (altimeter): 29.94 inches Hg (1014.0 mb)
Winds: variable direction winds at 2 MPH (2 knots; 1.0 m/s)
Visibility: 6 or more miles (10+ km)
Ceiling: 5500 feet AGL
Clouds: few clouds at 5000 feet AGL
broken clouds at 5500 feet AGL
Weather: no significant weather observed at this time

METAR text: LEMD 212200Z VRB02KT 9999 FEW050 BKN055 18/16 Q1014 NOSIG
Conditions at: LEMD (MADRID/BARAJAS , ES) observed 2200 UTC 21 September 2019
Temperature: 18.0°C (64°F)
Dewpoint: 16.0°C (61°F) [RH = 88%]
Pressure (altimeter): 29.94 inches Hg (1014.0 mb)
Winds: variable direction winds at 2 MPH (2 knots; 1.0 m/s)
Visibility: 6 or more miles (10+ km)
Ceiling: 5500 feet AGL
Clouds: few clouds at 5000 feet AGL
broken clouds at 5500 feet AGL
Weather: no significant weather observed at this time

METAR text: LEMD 212130Z 03002KT 9999 BKN055 18/16 Q1014 NOSIG
Conditions at: LEMD (MADRID/BARAJAS , ES) observed 2130 UTC 21 September 2019
Temperature: 18.0°C (64°F)
Dewpoint: 16.0°C (61°F) [RH = 88%]
Pressure (altimeter): 29.94 inches Hg (1014.0 mb)
Winds: from the NNE (30 degrees) at 2 MPH (2 knots; 1.0 m/s)
Visibility: 6 or more miles (10+ km)
Ceiling: 5500 feet AGL
Clouds: broken clouds at 5500 feet AGL
Weather: no significant weather observed at this time

METAR text: LEMD 212100Z VRB01KT 9999 SCT045 BKN060 19/16 Q1014 NOSIG
Conditions at: LEMD (MADRID/BARAJAS , ES) observed 2100 UTC 21 September 2019
Temperature: 19.0°C (66°F)
Dewpoint: 16.0°C (61°F) [RH = 83%]
Pressure (altimeter): 29.94 inches Hg (1014.0 mb)
Winds: variable direction winds at 1 MPH (1 knots; 0.5 m/s)
Visibility: 6 or more miles (10+ km)
Ceiling: 6000 feet AGL
Clouds: scattered clouds at 4500 feet AGL
broken clouds at 6000 feet AGL
Weather: no significant weather observed at this time

METAR text: LEMD 212030Z 31005KT 270V340 9999 SCT040 BKN070 19/16 Q1014 NOSIG
Conditions at: LEMD (MADRID/BARAJAS , ES) observed 2030 UTC 21 September 2019
Temperature: 19.0°C (66°F)
Dewpoint: 16.0°C (61°F) [RH = 83%]
Pressure (altimeter): 29.94 inches Hg (1014.0 mb)
Winds: from the NW (310 degrees) at 6 MPH (5 knots; 2.6 m/s)
Visibility: 6 or more miles (10+ km)
Ceiling: 7000 feet AGL
Clouds: scattered clouds at 4000 feet AGL
broken clouds at 7000 feet AGL
Weather: no significant weather observed at this time

METAR text: LEMD 212000Z 31005KT 280V340 9999 SCT040 BKN060 19/16 Q1014 NOSIG
Conditions at: LEMD (MADRID/BARAJAS , ES) observed 2000 UTC 21 September 2019
Temperature: 19.0°C (66°F)
Dewpoint: 16.0°C (61°F) [RH = 83%]
Pressure (altimeter): 29.94 inches Hg (1014.0 mb)
Winds: from the NW (310 degrees) at 6 MPH (5 knots; 2.6 m/s)
Visibility: 6 or more miles (10+ km)
Ceiling: 6000 feet AGL
Clouds: scattered clouds at 4000 feet AGL
broken clouds at 6000 feet AGL
Weather: no significant weather observed at this time

METAR text: LEMD 211930Z 34006KT 310V010 9999 SCT042 BKN066 19/16 Q1013 NOSIG
Conditions at: LEMD (MADRID/BARAJAS , ES) observed 1930 UTC 21 September 2019
Temperature: 19.0°C (66°F)
Dewpoint: 16.0°C (61°F) [RH = 83%]
Pressure (altimeter): 29.91 inches Hg (1013.0 mb)
Winds: from the NNW (340 degrees) at 7 MPH (6 knots; 3.1 m/s)
Visibility: 6 or more miles (10+ km)
Ceiling: 6600 feet AGL
Clouds: scattered clouds at 4200 feet AGL
broken clouds at 6600 feet AGL
Weather: no significant weather observed at this time

METAR text: LEMD 211900Z 36004KT 9999 SCT041 BKN060 19/17 Q1013 NOSIG
Conditions at: LEMD (MADRID/BARAJAS , ES) observed 1900 UTC 21 September 2019
Temperature: 19.0°C (66°F)
Dewpoint: 17.0°C (63°F) [RH = 88%]
Pressure (altimeter): 29.91 inches Hg (1013.0 mb)
Winds: from the N (360 degrees) at 5 MPH (4 knots; 2.1 m/s)
Visibility: 6 or more miles (10+ km)
Ceiling: 6000 feet AGL
Clouds: scattered clouds at 4100 feet AGL
broken clouds at 6000 feet AGL
Weather: no significant weather observed at this time

METAR text: LEMD 211830Z 33004KT 9999 FEW041 SCT060 BKN076 20/16 Q1013 NOSIG
Conditions at: LEMD (MADRID/BARAJAS , ES) observed 1830 UTC 21 September 2019
Temperature: 20.0°C (68°F)
Dewpoint: 16.0°C (61°F) [RH = 78%]
Pressure (altimeter): 29.91 inches Hg (1013.0 mb)
Winds: from the NNW (330 degrees) at 5 MPH (4 knots; 2.1 m/s)
Visibility: 6 or more miles (10+ km)
Ceiling: 7600 feet AGL
Clouds: few clouds at 4100 feet AGL
scattered clouds at 6000 feet AGL
broken clouds at 7600 feet AGL
Weather: no significant weather observed at this time

METAR text: LEMD 211800Z 30005KT 9999 SCT046 BKN060 20/16 Q1013 NOSIG
Conditions at: LEMD (MADRID/BARAJAS , ES) observed 1800 UTC 21 September 2019
Temperature: 20.0°C (68°F)
Dewpoint: 16.0°C (61°F) [RH = 78%]
Pressure (altimeter): 29.91 inches Hg (1013.0 mb)
Winds: from the WNW (300 degrees) at 6 MPH (5 knots; 2.6 m/s)
Visibility: 6 or more miles (10+ km)
Ceiling: 6000 feet AGL
Clouds: scattered clouds at 4600 feet AGL
broken clouds at 6000 feet AGL
Weather: no significant weather observed at this time

METAR text: LEMD 211730Z 28003KT 250V320 9999 SCT046 BKN058 21/16 Q1013 NOSIG
Conditions at: LEMD (MADRID/BARAJAS , ES) observed 1730 UTC 21 September 2019
Temperature: 21.0°C (70°F)
Dewpoint: 16.0°C (61°F) [RH = 73%]
Pressure (altimeter): 29.91 inches Hg (1013.0 mb)
Winds: from the W (280 degrees) at 3 MPH (3 knots; 1.5 m/s)
Visibility: 6 or more miles (10+ km)
Ceiling: 5800 feet AGL
Clouds: scattered clouds at 4600 feet AGL
broken clouds at 5800 feet AGL
Weather: no significant weather observed at this time

METAR text: LEMD 211700Z 27003KT 220V320 9999 SCT050 BKN068 21/16 Q1013 NOSIG
Conditions at: LEMD (MADRID/BARAJAS , ES) observed 1700 UTC 21 September 2019
Temperature: 21.0°C (70°F)
Dewpoint: 16.0°C (61°F) [RH = 73%]
Pressure (altimeter): 29.91 inches Hg (1013.0 mb)
Winds: from the W (270 degrees) at 3 MPH (3 knots; 1.5 m/s)
Visibility: 6 or more miles (10+ km)
Ceiling: 6800 feet AGL
Clouds: scattered clouds at 5000 feet AGL
broken clouds at 6800 feet AGL
Weather: no significant weather observed at this time

METAR text: LEMD 211630Z 24005KT 9999 SCT047 BKN060 BKN070 21/16 Q1013 NOSIG
Conditions at: LEMD (MADRID/BARAJAS , ES) observed 1630 UTC 21 September 2019
Temperature: 21.0°C (70°F)
Dewpoint: 16.0°C (61°F) [RH = 73%]
Pressure (altimeter): 29.91 inches Hg (1013.0 mb)
Winds: from the WSW (240 degrees) at 6 MPH (5 knots; 2.6 m/s)
Visibility: 6 or more miles (10+ km)
Ceiling: 6000 feet AGL
Clouds: scattered clouds at 4700 feet AGL
broken clouds at 6000 feet AGL
broken clouds at 7000 feet AGL
Weather: no significant weather observed at this time

METAR text: LEMD 211600Z 20008KT 9999 -RA SCT032 BKN041 BKN060 21/16 Q1013 NOSIG
Conditions at: LEMD (MADRID/BARAJAS , ES) observed 1600 UTC 21 September 2019
Temperature: 21.0°C (70°F)
Dewpoint: 16.0°C (61°F) [RH = 73%]
Pressure (altimeter): 29.91 inches Hg (1013.0 mb)
Winds: from the SSW (200 degrees) at 9 MPH (8 knots; 4.1 m/s)
Visibility: 6 or more miles (10+ km)
Ceiling: 4100 feet AGL
Clouds: scattered clouds at 3200 feet AGL
broken clouds at 4100 feet AGL
broken clouds at 6000 feet AGL
Weather: -RA  (light rain)

METAR text: LEMD 211530Z 18006KT 150V240 9999 SCT033 BKN050 BKN076 22/15 Q1013 NOSIG
Conditions at: LEMD (MADRID/BARAJAS , ES) observed 1530 UTC 21 September 2019
Temperature: 22.0°C (72°F)
Dewpoint: 15.0°C (59°F) [RH = 65%]
Pressure (altimeter): 29.91 inches Hg (1013.0 mb)
Winds: from the S (180 degrees) at 7 MPH (6 knots; 3.1 m/s)
Visibility: 6 or more miles (10+ km)
Ceiling: 5000 feet AGL
Clouds: scattered clouds at 3300 feet AGL
broken clouds at 5000 feet AGL
broken clouds at 7600 feet AGL
Weather: no significant weather observed at this time

METAR text: LEMD 211500Z 17006G20KT 9999 SCT036 BKN065 BKN075 22/15 Q1013 NOSIG
Conditions at: LEMD (MADRID/BARAJAS , ES) observed 1500 UTC 21 September 2019
Temperature: 22.0°C (72°F)
Dewpoint: 15.0°C (59°F) [RH = 65%]
Pressure (altimeter): 29.91 inches Hg (1013.0 mb)
Winds: from the S (170 degrees) at 7 MPH (6 knots; 3.1 m/s)
gusting to 23 MPH (20 knots; 10.3 m/s)
Visibility: 6 or more miles (10+ km)
Ceiling: 6500 feet AGL
Clouds: scattered clouds at 3600 feet AGL
broken clouds at 6500 feet AGL
broken clouds at 7500 feet AGL
Weather: no significant weather observed at this time

METAR text: LEMD 211430Z VRB06KT 9999 SCT036 BKN049 21/15 Q1014 NOSIG
Conditions at: LEMD (MADRID/BARAJAS , ES) observed 1430 UTC 21 September 2019
Temperature: 21.0°C (70°F)
Dewpoint: 15.0°C (59°F) [RH = 69%]
Pressure (altimeter): 29.94 inches Hg (1014.0 mb)
Winds: variable direction winds at 7 MPH (6 knots; 3.1 m/s)
Visibility: 6 or more miles (10+ km)
Ceiling: 4900 feet AGL
Clouds: scattered clouds at 3600 feet AGL
broken clouds at 4900 feet AGL
Weather: no significant weather observed at this time

METAR text: LEMD 211400Z 17005KT 120V220 9999 -DZ SCT028 BKN043 21/15 Q1014 NOSIG
Conditions at: LEMD (MADRID/BARAJAS , ES) observed 1400 UTC 21 September 2019
Temperature: 21.0°C (70°F)
Dewpoint: 15.0°C (59°F) [RH = 69%]
Pressure (altimeter): 29.94 inches Hg (1014.0 mb)
Winds: from the S (170 degrees) at 6 MPH (5 knots; 2.6 m/s)
Visibility: 6 or more miles (10+ km)
Ceiling: 4300 feet AGL
Clouds: scattered clouds at 2800 feet AGL
broken clouds at 4300 feet AGL
Weather: -DZ  (light drizzle)

METAR text: LEMD 211330Z 18005KT 100V240 9999 -DZ SCT035 BKN050 21/14 Q1014 NOSIG
Conditions at: LEMD (MADRID/BARAJAS , ES) observed 1330 UTC 21 September 2019
Temperature: 21.0°C (70°F)
Dewpoint: 14.0°C (57°F) [RH = 64%]
Pressure (altimeter): 29.94 inches Hg (1014.0 mb)
Winds: from the S (180 degrees) at 6 MPH (5 knots; 2.6 m/s)
Visibility: 6 or more miles (10+ km)
Ceiling: 5000 feet AGL
Clouds: scattered clouds at 3500 feet AGL
broken clouds at 5000 feet AGL
Weather: -DZ  (light drizzle)

METAR text: LEMD 211300Z 20005KT 150V240 9999 SCT035 SCT060 22/14 Q1014 NOSIG
Conditions at: LEMD (MADRID/BARAJAS , ES) observed 1300 UTC 21 September 2019
Temperature: 22.0°C (72°F)
Dewpoint: 14.0°C (57°F) [RH = 60%]
Pressure (altimeter): 29.94 inches Hg (1014.0 mb)
Winds: from the SSW (200 degrees) at 6 MPH (5 knots; 2.6 m/s)
Visibility: 6 or more miles (10+ km)
Ceiling: at least 12,000 feet AGL
Clouds: scattered clouds at 3500 feet AGL
scattered clouds at 6000 feet AGL
Weather: no significant weather observed at this time

METAR text: LEMD 211230Z 19005KT 150V240 9999 SCT030 SCT042 21/14 Q1015 NOSIG
Conditions at: LEMD (MADRID/BARAJAS , ES) observed 1230 UTC 21 September 2019
Temperature: 21.0°C (70°F)
Dewpoint: 14.0°C (57°F) [RH = 64%]
Pressure (altimeter): 29.97 inches Hg (1015.0 mb)
Winds: from the S (190 degrees) at 6 MPH (5 knots; 2.6 m/s)
Visibility: 6 or more miles (10+ km)
Ceiling: at least 12,000 feet AGL
Clouds: scattered clouds at 3000 feet AGL
scattered clouds at 4200 feet AGL
Weather: no significant weather observed at this time

METAR text: LEMD 211200Z 20009KT 9999 SCT031 SCT045 21/14 Q1015 NOSIG
Conditions at: LEMD (MADRID/BARAJAS , ES) observed 1200 UTC 21 September 2019
Temperature: 21.0°C (70°F)
Dewpoint: 14.0°C (57°F) [RH = 64%]
Pressure (altimeter): 29.97 inches Hg (1015.0 mb)
Winds: from the SSW (200 degrees) at 10 MPH (9 knots; 4.6 m/s)
Visibility: 6 or more miles (10+ km)
Ceiling: at least 12,000 feet AGL
Clouds: scattered clouds at 3100 feet AGL
scattered clouds at 4500 feet AGL
Weather: no significant weather observed at this time

METAR text: LEMD 211130Z 21008KT 9999 SCT030 SCT040 21/14 Q1015 NOSIG
Conditions at: LEMD (MADRID/BARAJAS , ES) observed 1130 UTC 21 September 2019
Temperature: 21.0°C (70°F)
Dewpoint: 14.0°C (57°F) [RH = 64%]
Pressure (altimeter): 29.97 inches Hg (1015.0 mb)
Winds: from the SSW (210 degrees) at 9 MPH (8 knots; 4.1 m/s)
Visibility: 6 or more miles (10+ km)
Ceiling: at least 12,000 feet AGL
Clouds: scattered clouds at 3000 feet AGL
scattered clouds at 4000 feet AGL
Weather: no significant weather observed at this time

METAR text: LEMD 211100Z 19008G21KT 150V260 9999 SCT030 SCT040 21/13 Q1015 NOSIG
Conditions at: LEMD (MADRID/BARAJAS , ES) observed 1100 UTC 21 September 2019
Temperature: 21.0°C (70°F)
Dewpoint: 13.0°C (55°F) [RH = 60%]
Pressure (altimeter): 29.97 inches Hg (1015.0 mb)
Winds: from the S (190 degrees) at 9 MPH (8 knots; 4.1 m/s)
gusting to 24 MPH (21 knots; 10.8 m/s)
Visibility: 6 or more miles (10+ km)
Ceiling: at least 12,000 feet AGL
Clouds: scattered clouds at 3000 feet AGL
scattered clouds at 4000 feet AGL
Weather: no significant weather observed at this time

METAR text: LEMD 211030Z 19008KT 130V230 9999 SCT030 SCT040 21/14 Q1015 NOSIG
Conditions at: LEMD (MADRID/BARAJAS , ES) observed 1030 UTC 21 September 2019
Temperature: 21.0°C (70°F)
Dewpoint: 14.0°C (57°F) [RH = 64%]
Pressure (altimeter): 29.97 inches Hg (1015.0 mb)
Winds: from the S (190 degrees) at 9 MPH (8 knots; 4.1 m/s)
Visibility: 6 or more miles (10+ km)
Ceiling: at least 12,000 feet AGL
Clouds: scattered clouds at 3000 feet AGL
scattered clouds at 4000 feet AGL
Weather: no significant weather observed at this time

METAR text: LEMD 211000Z VRB07G19KT 9999 SCT030 BKN040 20/14 Q1015 NOSIG
Conditions at: LEMD (MADRID/BARAJAS , ES) observed 1000 UTC 21 September 2019
Temperature: 20.0°C (68°F)
Dewpoint: 14.0°C (57°F) [RH = 68%]
Pressure (altimeter): 29.97 inches Hg (1015.0 mb)
Winds: variable direction winds at 8 MPH (7 knots; 3.6 m/s)
gusting to 22 MPH (19 knots; 9.8 m/s)
Visibility: 6 or more miles (10+ km)
Ceiling: 4000 feet AGL
Clouds: scattered clouds at 3000 feet AGL
broken clouds at 4000 feet AGL
Weather: no significant weather observed at this time

METAR text: LEMD 210930Z 19006KT 160V230 9999 SCT025 BKN035 20/14 Q1015 NOSIG
Conditions at: LEMD (MADRID/BARAJAS , ES) observed 0930 UTC 21 September 2019
Temperature: 20.0°C (68°F)
Dewpoint: 14.0°C (57°F) [RH = 68%]
Pressure (altimeter): 29.97 inches Hg (1015.0 mb)
Winds: from the S (190 degrees) at 7 MPH (6 knots; 3.1 m/s)
Visibility: 6 or more miles (10+ km)
Ceiling: 3500 feet AGL
Clouds: scattered clouds at 2500 feet AGL
broken clouds at 3500 feet AGL
Weather: no significant weather observed at this time

METAR text: LEMD 210900Z 20004KT 160V260 9999 SCT025 19/14 Q1015 NOSIG
Conditions at: LEMD (MADRID/BARAJAS , ES) observed 0900 UTC 21 September 2019
Temperature: 19.0°C (66°F)
Dewpoint: 14.0°C (57°F) [RH = 73%]
Pressure (altimeter): 29.97 inches Hg (1015.0 mb)
Winds: from the SSW (200 degrees) at 5 MPH (4 knots; 2.1 m/s)
Visibility: 6 or more miles (10+ km)
Ceiling: at least 12,000 feet AGL
Clouds: scattered clouds at 2500 feet AGL
Weather: no significant weather observed at this time

METAR text: LEMD 210830Z 17003KT 130V220 CAVOK 19/15 Q1015 NOSIG
Conditions at: LEMD (MADRID/BARAJAS , ES) observed 0830 UTC 21 September 2019
Temperature: 19.0°C (66°F)
Dewpoint: 15.0°C (59°F) [RH = 78%]
Pressure (altimeter): 29.97 inches Hg (1015.0 mb)
Winds: from the S (170 degrees) at 3 MPH (3 knots; 1.5 m/s)
Visibility: 6 or more miles (10+ km)
Ceiling: ceiling and visibility are OK
Clouds: unknown
Weather: no significant weather observed at this time

METAR text: LEMD 210800Z VRB02KT CAVOK 19/15 Q1015 NOSIG
Conditions at: LEMD (MADRID/BARAJAS , ES) observed 0800 UTC 21 September 2019
Temperature: 19.0°C (66°F)
Dewpoint: 15.0°C (59°F) [RH = 78%]
Pressure (altimeter): 29.97 inches Hg (1015.0 mb)
Winds: variable direction winds at 2 MPH (2 knots; 1.0 m/s)
Visibility: 6 or more miles (10+ km)
Ceiling: ceiling and visibility are OK
Clouds: unknown
Weather: no significant weather observed at this time

METAR text: LEMD 210730Z 05001KT 9999 FEW030 SCT070 18/15 Q1015 NOSIG
Conditions at: LEMD (MADRID/BARAJAS , ES) observed 0730 UTC 21 September 2019
Temperature: 18.0°C (64°F)
Dewpoint: 15.0°C (59°F) [RH = 83%]
Pressure (altimeter): 29.97 inches Hg (1015.0 mb)
Winds: from the NE (50 degrees) at 1 MPH (1 knots; 0.5 m/s)
Visibility: 6 or more miles (10+ km)
Ceiling: at least 12,000 feet AGL
Clouds: few clouds at 3000 feet AGL
scattered clouds at 7000 feet AGL
Weather: no significant weather observed at this time

METAR text: LEMD 210700Z VRB02KT 9000 FEW030 SCT070 17/14 Q1015 NOSIG
Conditions at: LEMD (MADRID/BARAJAS , ES) observed 0700 UTC 21 September 2019
Temperature: 17.0°C (63°F)
Dewpoint: 14.0°C (57°F) [RH = 82%]
Pressure (altimeter): 29.97 inches Hg (1015.0 mb)
Winds: variable direction winds at 2 MPH (2 knots; 1.0 m/s)
Visibility: 6 miles ( 9 km)
Ceiling: at least 12,000 feet AGL
Clouds: few clouds at 3000 feet AGL
scattered clouds at 7000 feet AGL
Weather: no significant weather observed at this time

METAR text: LEMD 210630Z 21003KT 170V250 9000 FEW003 SCT070 17/14 Q1015 NOSIG
Conditions at: LEMD (MADRID/BARAJAS , ES) observed 0630 UTC 21 September 2019
Temperature: 17.0°C (63°F)
Dewpoint: 14.0°C (57°F) [RH = 82%]
Pressure (altimeter): 29.97 inches Hg (1015.0 mb)
Winds: from the SSW (210 degrees) at 3 MPH (3 knots; 1.5 m/s)
Visibility: 6 miles ( 9 km)
Ceiling: at least 12,000 feet AGL
Clouds: few clouds at 300 feet AGL
scattered clouds at 7000 feet AGL
Weather: no significant weather observed at this time

METAR text: LEMD 210600Z 16003KT 120V220 9000 FEW003 SCT040 15/14 Q1015 NOSIG
Conditions at: LEMD (MADRID/BARAJAS , ES) observed 0600 UTC 21 September 2019
Temperature: 15.0°C (59°F)
Dewpoint: 14.0°C (57°F) [RH = 94%]
Pressure (altimeter): 29.97 inches Hg (1015.0 mb)
Winds: from the SSE (160 degrees) at 3 MPH (3 knots; 1.5 m/s)
Visibility: 6 miles ( 9 km)
Ceiling: at least 12,000 feet AGL
Clouds: few clouds at 300 feet AGL
scattered clouds at 4000 feet AGL
Weather: no significant weather observed at this time

METAR text: LEMD 210530Z 17004KT 150V210 9000 SCT040 17/15 Q1015 NOSIG
Conditions at: LEMD (MADRID/BARAJAS , ES) observed 0530 UTC 21 September 2019
Temperature: 17.0°C (63°F)
Dewpoint: 15.0°C (59°F) [RH = 88%]
Pressure (altimeter): 29.97 inches Hg (1015.0 mb)
Winds: from the S (170 degrees) at 5 MPH (4 knots; 2.1 m/s)
Visibility: 6 miles ( 9 km)
Ceiling: at least 12,000 feet AGL
Clouds: scattered clouds at 4000 feet AGL
Weather: no significant weather observed at this time

Forecast for: LEMD (MADRID/BARAJAS , ES)
Text: TAF LEMD 221700Z 2218/2324 27010KT 9999 FEW050 TX24/2315Z TN11/2306Z
Forecast period: 1800 to 1900 UTC 22 September 2019
Forecast type: FROM: standard forecast or significant change
Winds: from the W (270 degrees) at 12 MPH (10 knots; 5.1 m/s)
Visibility: 6 or more miles 10+ km)
Ceiling: at least 12,000 feet AGL
Clouds: few clouds at 5000 feet AGL
Weather: no significant weather forecast for this period
Text: BECMG 2219/2221 VRB05KT
Forecast period: 1900 UTC 22 September 2019 to 0000 UTC 24 September 2019
Forecast type: BECOMING: Conditions expected to become as follows by 2100 UTC 22 September 2019
Winds: variable direction winds at 6 MPH (5 knots; 2.6 m/s)
Visibility: 6 or more miles 10+ km)
Ceiling: at least 12,000 feet AGL
Clouds: few clouds at 5000 feet AGL
Weather: no significant weather forecast for this period
Text: PROB30
Forecast period: 1100 to 1700 UTC 23 September 2019
Forecast type: TEMPORARY: The following changes expected for less than half the time period
Winds: from the SW (220 degrees) at 12 MPH (10 knots; 5.1 m/s)
Visibility: missing
Ceiling: unknown
Clouds: missing
Weather: no significant weather forecast for this period